Time;durP1;ratioP1;P1;durP2;ratioP2;P2;SDS_P1;SDS_P2;PMS_P1;PMS_P2;Temp;Humidity;BMP_temperature;BMP_pressure;BME280_temperature;BME280_humidity;BME280_pressure;Samples;Min_cycle;Max_cycle;Signal;HPM_P1;HPM_P2
2022/09/16 00:01:54;;;;;;;14.35;7.53;;;;;;;;;;4944899;28;21815;-66
2022/09/16 00:04:20;;;;;;;13.38;7.65;;;;;;;;;;4954801;28;20487;-67
2022/09/16 00:06:47;;;;;;;14.32;8.18;;;;;;;;;;4942220;28;20046;-68
2022/09/16 00:09:14;;;;;;;13.38;7.47;;;;;;;;;;4940360;28;20039;-67
2022/09/16 00:11:40;;;;;;;13.18;7.88;;;;;;;;;;4958247;28;20066;-66
2022/09/16 00:14:07;;;;;;;14.13;8.82;;;;;;;;;;4942869;28;20050;-66
2022/09/16 00:16:34;;;;;;;14.85;8.13;;;;;;;;;;4942197;28;20054;-67
2022/09/16 00:19:20;;;;;;;12.93;7.47;;;;;;;;;;4988939;28;20222;-71
2022/09/16 00:21:47;;;;;;;12.45;7.40;;;;;;;;;;5000256;28;20458;-70
2022/09/16 00:24:15;;;;;;;14.60;8.00;;;;;;;;;;4998702;28;20038;-70
2022/09/16 00:26:44;;;;;;;11.13;7.03;;;;;;;;;;4995755;28;20054;-68
2022/09/16 00:29:11;;;;;;;14.32;8.13;;;;;;;;;;4982984;28;20042;-68
2022/09/16 00:31:38;;;;;;;14.10;7.38;;;;;;;;;;4997122;28;20336;-69
2022/09/16 00:34:04;;;;;;;13.73;8.02;;;;;;;;;;4989774;28;20792;-69
2022/09/16 00:36:31;;;;;;;14.32;7.63;;;;;;;;;;4999968;28;20037;-69
2022/09/16 00:38:58;;;;;;;12.52;7.53;;;;;;;;;;5003351;28;20198;-68
2022/09/16 00:41:26;;;;;;;17.10;11.13;;;;;;;;;;4996616;28;20034;-66
2022/09/16 00:43:57;;;;;;;15.00;9.45;;;;;;;;;;4997888;28;20033;-69
2022/09/16 00:46:33;;;;;;;10.20;6.40;;;;;;;;;;4998568;28;20049;-68
2022/09/16 00:49:05;;;;;;;12.93;6.95;;;;;;;;;;4983157;28;20065;-70
2022/09/16 00:51:32;;;;;;;11.25;6.97;;;;;;;;;;4945764;28;20145;-68
2022/09/16 00:54:02;;;;;;;13.52;6.85;;;;;;;;;;4945925;28;20039;-68
2022/09/16 00:56:30;;;;;;;12.40;6.60;;;;;;;;;;4966755;28;20047;-66
2022/09/16 00:59:07;;;;;;;15.23;7.30;;;;;;;;;;4954232;28;20028;-68
2022/09/16 01:01:34;;;;;;;12.70;7.22;;;;;;;;;;4942719;28;20054;-67
2022/09/16 01:04:06;;;;;;;11.88;6.30;;;;;;;;;;4958942;28;20045;-69
2022/09/16 01:06:35;;;;;;;12.60;6.72;;;;;;;;;;4974244;28;20162;-66
2022/09/16 01:09:02;;;;;;;15.60;6.88;;;;;;;;;;4942545;28;20163;-68
2022/09/16 01:11:29;;;;;;;15.40;7.07;;;;;;;;;;4952572;28;20052;-67
2022/09/16 01:14:51;;;;;;;12.52;6.32;;;;;;;;;;4970851;28;20051;-67
2022/09/16 01:16:46;;;;;;;12.85;6.20;;;;;;;;;;4944584;28;20057;-66
2022/09/16 01:19:18;;;;;;;12.77;6.45;;;;;;;;;;4946949;28;20097;-69
2022/09/16 01:21:44;;;;;;;13.33;6.93;;;;;;;;;;4943036;28;20055;-65
2022/09/16 01:24:29;;;;;;;13.63;6.55;;;;;;;;;;4941797;28;20043;-68
2022/09/16 01:26:59;;;;;;;13.80;6.72;;;;;;;;;;4944029;28;20051;-66
2022/09/16 01:29:32;;;;;;;17.63;7.13;;;;;;;;;;4944427;28;20039;-65
2022/09/16 01:31:58;;;;;;;;;;;;;;;;;;4945895;28;20051;-64
2022/09/16 01:34:24;;;;;;;16.67;7.05;;;;;;;;;;4942094;28;19924;-65
2022/09/16 01:37:00;;;;;;;17.23;7.10;;;;;;;;;;4943559;28;20063;-66
2022/09/16 01:39:26;;;;;;;14.82;6.22;;;;;;;;;;4943522;28;20047;-65
2022/09/16 01:42:13;;;;;;;14.95;7.43;;;;;;;;;;4944206;28;20524;-64
2022/09/16 01:44:44;;;;;;;12.35;6.30;;;;;;;;;;4940407;28;20039;-66
2022/09/16 01:47:11;;;;;;;17.33;7.40;;;;;;;;;;4941769;28;20136;-66
2022/09/16 01:49:40;;;;;;;13.38;6.80;;;;;;;;;;4943109;28;20448;-65
2022/09/16 01:52:07;;;;;;;13.35;7.35;;;;;;;;;;4943641;28;20139;-65
2022/09/16 01:54:36;;;;;;;15.95;6.80;;;;;;;;;;4941466;28;20150;-66
2022/09/16 01:57:09;;;;;;;14.73;6.75;;;;;;;;;;4957661;28;20057;-66
2022/09/16 01:59:54;;;;;;;12.65;6.75;;;;;;;;;;4958410;28;20070;-65
2022/09/16 02:02:27;;;;;;;12.68;6.18;;;;;;;;;;4957071;28;20043;-66
2022/09/16 02:04:55;;;;;;;11.57;5.93;;;;;;;;;;4958240;28;20070;-66
2022/09/16 02:07:25;;;;;;;13.57;6.78;;;;;;;;;;4957456;28;20057;-65
2022/09/16 02:09:55;;;;;;;12.55;6.80;;;;;;;;;;4958853;28;20075;-66
2022/09/16 02:12:25;;;;;;;14.02;6.65;;;;;;;;;;4941923;28;20066;-65
2022/09/16 02:14:54;;;;;;;12.77;6.82;;;;;;;;;;4943449;28;20046;-66
2022/09/16 02:17:23;;;;;;;13.68;6.80;;;;;;;;;;4956215;28;20043;-66
2022/09/16 02:19:56;;;;;;;14.27;6.57;;;;;;;;;;4956439;28;20424;-65
2022/09/16 02:22:31;;;;;;;12.85;6.78;;;;;;;;;;4943053;28;20050;-65
2022/09/16 02:24:59;;;;;;;16.45;7.57;;;;;;;;;;4959863;28;20112;-65
2022/09/16 02:27:27;;;;;;;16.58;6.93;;;;;;;;;;4957605;28;20452;-68
2022/09/16 02:29:56;;;;;;;16.25;7.00;;;;;;;;;;4958630;28;20492;-64
2022/09/16 02:32:24;;;;;;;13.63;7.00;;;;;;;;;;4945868;28;20102;-66
2022/09/16 02:34:53;;;;;;;14.10;7.15;;;;;;;;;;4949641;28;20041;-65
2022/09/16 02:37:32;;;;;;;11.82;6.57;;;;;;;;;;4964886;28;20085;-69
2022/09/16 02:40:04;;;;;;;12.70;6.60;;;;;;;;;;4942632;28;20366;-66
2022/09/16 02:42:30;;;;;;;14.73;6.97;;;;;;;;;;4938801;28;20090;-66
2022/09/16 02:44:58;;;;;;;18.58;7.10;;;;;;;;;;4956431;28;20039;-65
2022/09/16 02:47:30;;;;;;;14.77;7.68;;;;;;;;;;4939222;28;20440;-66
2022/09/16 02:50:00;;;;;;;17.80;7.28;;;;;;;;;;4956107;28;20114;-65
2022/09/16 02:52:36;;;;;;;14.38;7.25;;;;;;;;;;4952850;28;20047;-64
2022/09/16 02:55:13;;;;;;;14.50;7.13;;;;;;;;;;4955525;28;20225;-66
2022/09/16 02:57:40;;;;;;;18.58;7.07;;;;;;;;;;4941368;28;20055;-65
2022/09/16 03:00:07;;;;;;;14.80;7.10;;;;;;;;;;4943766;28;20031;-66
2022/09/16 03:02:35;;;;;;;12.68;7.15;;;;;;;;;;4942002;28;20043;-65
2022/09/16 03:05:05;;;;;;;15.27;7.70;;;;;;;;;;4944490;28;20146;-67
2022/09/16 03:07:31;;;;;;;19.83;8.38;;;;;;;;;;4962982;28;20046;-64
2022/09/16 03:09:58;;;;;;;19.95;7.95;;;;;;;;;;4944638;28;20042;-67
2022/09/16 03:12:25;;;;;;;15.75;7.35;;;;;;;;;;4943637;28;20072;-66
2022/09/16 03:14:54;;;;;;;16.48;7.65;;;;;;;;;;4944675;28;20063;-66
2022/09/16 03:17:30;;;;;;;13.43;6.90;;;;;;;;;;4944829;28;20038;-66
2022/09/16 03:20:04;;;;;;;13.30;7.28;;;;;;;;;;4942467;28;20050;-66
2022/09/16 03:22:34;;;;;;;11.75;6.55;;;;;;;;;;4943141;28;20109;-64
2022/09/16 03:25:10;;;;;;;18.92;7.68;;;;;;;;;;4943783;28;20050;-66
2022/09/16 03:27:42;;;;;;;13.13;6.32;;;;;;;;;;4946642;28;20177;-67
2022/09/16 03:30:10;;;;;;;18.70;7.10;;;;;;;;;;4944310;28;20101;-66
2022/09/16 03:32:43;;;;;;;13.15;7.10;;;;;;;;;;4943486;28;20127;-65
2022/09/16 03:35:12;;;;;;;13.98;6.97;;;;;;;;;;4942249;28;20054;-64
2022/09/16 03:37:40;;;;;;;11.75;6.53;;;;;;;;;;4942032;28;20031;-66
2022/09/16 03:40:15;;;;;;;14.23;7.47;;;;;;;;;;4959795;28;20035;-65
2022/09/16 03:42:42;;;;;;;13.85;7.05;;;;;;;;;;4960901;28;20503;-67
2022/09/16 03:45:14;;;;;;;18.02;7.47;;;;;;;;;;4961269;28;20046;-65
2022/09/16 03:47:41;;;;;;;14.03;6.57;;;;;;;;;;4965542;28;20051;-64
2022/09/16 03:50:08;;;;;;;20.42;7.00;;;;;;;;;;4944259;28;20035;-67
2022/09/16 03:52:35;;;;;;;12.68;7.28;;;;;;;;;;4958411;28;20479;-64
2022/09/16 03:55:01;;;;;;;13.10;6.53;;;;;;;;;;4943503;28;20043;-64
2022/09/16 03:57:29;;;;;;;13.32;6.72;;;;;;;;;;4941632;28;20523;-67
2022/09/16 03:59:56;;;;;;;12.40;6.93;;;;;;;;;;4942634;28;20058;-68
2022/09/16 04:02:22;;;;;;;14.13;7.35;;;;;;;;;;4941727;28;20028;-66
2022/09/16 04:04:49;;;;;;;14.70;7.50;;;;;;;;;;4958951;28;20051;-66
2022/09/16 04:07:16;;;;;;;12.57;6.45;;;;;;;;;;4949956;28;20075;-66
2022/09/16 04:09:42;;;;;;;13.95;7.38;;;;;;;;;;4950222;28;20053;-66
2022/09/16 04:12:09;;;;;;;14.48;6.45;;;;;;;;;;4951015;28;20036;-71
2022/09/16 04:14:36;;;;;;;11.65;6.75;;;;;;;;;;4947873;28;20139;-67
2022/09/16 04:17:03;;;;;;;12.45;6.88;;;;;;;;;;4950608;28;20114;-68
2022/09/16 04:19:30;;;;;;;11.95;6.78;;;;;;;;;;4945022;28;20133;-68
2022/09/16 04:21:56;;;;;;;15.80;7.25;;;;;;;;;;4948113;28;20036;-67
2022/09/16 04:24:23;;;;;;;16.95;7.43;;;;;;;;;;4959709;28;20042;-68
2022/09/16 04:26:50;;;;;;;14.15;6.65;;;;;;;;;;4948408;28;20062;-68
2022/09/16 04:29:16;;;;;;;17.73;6.90;;;;;;;;;;4948912;28;20054;-68
2022/09/16 04:31:43;;;;;;;12.25;6.68;;;;;;;;;;4946526;28;20415;-67
2022/09/16 04:34:13;;;;;;;23.55;7.85;;;;;;;;;;4944074;28;21752;-66
2022/09/16 04:36:39;;;;;;;20.27;7.47;;;;;;;;;;4958968;28;20043;-68
2022/09/16 04:39:06;;;;;;;13.43;6.93;;;;;;;;;;4946339;28;20547;-67
2022/09/16 04:41:33;;;;;;;15.38;7.22;;;;;;;;;;4942750;28;20057;-67
2022/09/16 04:44:00;;;;;;;15.93;7.30;;;;;;;;;;4944445;28;20041;-67
2022/09/16 04:46:28;;;;;;;14.63;6.35;;;;;;;;;;4942265;28;20433;-67
2022/09/16 04:48:55;;;;;;;13.00;7.18;;;;;;;;;;4944602;28;20087;-67
2022/09/16 04:51:22;;;;;;;15.18;6.30;;;;;;;;;;4943855;28;20054;-68
2022/09/16 04:53:48;;;;;;;13.07;7.18;;;;;;;;;;4959145;28;20032;-69
2022/09/16 04:56:20;;;;;;;12.82;6.43;;;;;;;;;;4958347;28;20042;-68
2022/09/16 04:58:47;;;;;;;12.38;6.47;;;;;;;;;;4957007;28;20044;-68
2022/09/16 05:01:18;;;;;;;13.77;6.75;;;;;;;;;;4941870;28;20175;-68
2022/09/16 05:03:49;;;;;;;14.43;6.15;;;;;;;;;;4945940;28;20051;-67
2022/09/16 05:06:17;;;;;;;15.52;6.53;;;;;;;;;;4942484;28;20066;-66
2022/09/16 05:08:43;;;;;;;14.38;6.78;;;;;;;;;;4956542;28;20072;-66
2022/09/16 05:11:11;;;;;;;14.90;6.78;;;;;;;;;;4943943;28;20042;-67
2022/09/16 05:13:38;;;;;;;13.05;6.45;;;;;;;;;;4942880;28;20043;-68
2022/09/16 05:16:06;;;;;;;12.20;6.70;;;;;;;;;;4943719;28;20048;-68
2022/09/16 05:18:33;;;;;;;11.82;6.38;;;;;;;;;;4944344;28;20546;-67
2022/09/16 05:21:00;;;;;;;12.10;6.35;;;;;;;;;;4955524;28;20039;-67
2022/09/16 05:23:27;;;;;;;14.45;6.70;;;;;;;;;;4958660;28;20046;-68
2022/09/16 05:25:54;;;;;;;17.48;6.55;;;;;;;;;;4945369;28;20066;-67
2022/09/16 05:28:21;;;;;;;14.43;6.72;;;;;;;;;;4947185;28;20435;-70
2022/09/16 05:30:48;;;;;;;13.68;6.65;;;;;;;;;;4944351;28;20524;-69
2022/09/16 05:33:15;;;;;;;30.67;7.88;;;;;;;;;;4959422;28;20043;-68
2022/09/16 05:35:41;;;;;;;12.05;6.32;;;;;;;;;;4960224;28;20041;-68
2022/09/16 05:38:08;;;;;;;11.57;5.95;;;;;;;;;;4943486;28;20615;-68
2022/09/16 05:40:35;;;;;;;12.98;6.53;;;;;;;;;;4941555;28;20043;-67
2022/09/16 05:43:01;;;;;;;14.35;6.18;;;;;;;;;;4944436;28;20056;-71
2022/09/16 05:45:28;;;;;;;15.57;7.13;;;;;;;;;;4957511;28;20518;-68
2022/09/16 05:47:54;;;;;;;13.43;7.03;;;;;;;;;;4942302;28;20134;-68
2022/09/16 05:50:21;;;;;;;13.95;6.88;;;;;;;;;;4941947;28;20410;-70
2022/09/16 05:52:48;;;;;;;16.15;7.03;;;;;;;;;;4943967;28;20512;-68
2022/09/16 05:55:14;;;;;;;15.82;7.05;;;;;;;;;;4958525;28;20051;-68
2022/09/16 05:57:41;;;;;;;13.40;6.40;;;;;;;;;;4959438;28;20456;-68
2022/09/16 06:00:08;;;;;;;14.90;6.85;;;;;;;;;;4944642;28;20361;-69
2022/09/16 06:02:34;;;;;;;15.02;6.45;;;;;;;;;;4944999;28;20073;-69
2022/09/16 06:05:01;;;;;;;12.93;6.80;;;;;;;;;;4955588;28;20063;-68
2022/09/16 06:07:28;;;;;;;16.88;6.85;;;;;;;;;;4960167;28;20039;-70
2022/09/16 06:09:55;;;;;;;11.35;6.47;;;;;;;;;;4943400;28;20396;-67
2022/09/16 06:12:21;;;;;;;14.77;7.13;;;;;;;;;;4956518;28;20043;-69
2022/09/16 06:14:48;;;;;;;12.75;6.45;;;;;;;;;;4943376;28;20046;-69
2022/09/16 06:17:14;;;;;;;14.43;6.38;;;;;;;;;;4944603;28;20045;-68
2022/09/16 06:19:41;;;;;;;13.38;7.20;;;;;;;;;;4958259;28;20138;-67
2022/09/16 06:22:08;;;;;;;14.32;6.95;;;;;;;;;;4944646;28;20040;-68
2022/09/16 06:24:34;;;;;;;18.85;6.78;;;;;;;;;;4957337;28;20049;-68
2022/09/16 06:27:01;;;;;;;13.38;6.88;;;;;;;;;;4961079;28;20204;-68
2022/09/16 06:29:27;;;;;;;11.65;5.93;;;;;;;;;;4947919;28;20038;-67
2022/09/16 06:31:54;;;;;;;16.45;6.75;;;;;;;;;;4949749;28;20122;-67
2022/09/16 06:34:21;;;;;;;13.50;6.63;;;;;;;;;;4941882;28;20040;-68
2022/09/16 06:36:47;;;;;;;14.32;6.40;;;;;;;;;;4945001;28;20146;-66
2022/09/16 06:39:15;;;;;;;13.88;6.50;;;;;;;;;;4945887;28;20047;-67
2022/09/16 06:41:41;;;;;;;14.35;6.72;;;;;;;;;;4945069;28;20074;-67
2022/09/16 06:44:08;;;;;;;14.18;6.22;;;;;;;;;;4943737;28;20523;-67
2022/09/16 06:46:35;;;;;;;11.57;5.82;;;;;;;;;;4957129;28;20079;-67
2022/09/16 06:49:01;;;;;;;12.02;6.20;;;;;;;;;;4959878;28;20049;-67
2022/09/16 06:51:29;;;;;;;12.98;6.28;;;;;;;;;;4942202;28;20109;-68
2022/09/16 06:53:59;;;;;;;11.05;5.53;;;;;;;;;;4943537;28;20056;-66
2022/09/16 06:56:26;;;;;;;12.82;6.43;;;;;;;;;;4943354;28;20128;-67
2022/09/16 06:58:54;;;;;;;12.35;6.05;;;;;;;;;;4956893;28;20516;-68
2022/09/16 07:01:22;;;;;;;12.88;5.90;;;;;;;;;;4943801;28;20043;-66
2022/09/16 07:03:51;;;;;;;12.52;6.13;;;;;;;;;;4943762;28;20075;-66
2022/09/16 07:06:19;;;;;;;12.75;5.93;;;;;;;;;;4941825;28;20412;-68
2022/09/16 07:08:45;;;;;;;13.25;5.85;;;;;;;;;;4944962;28;20452;-67
2022/09/16 07:11:13;;;;;;;10.23;5.28;;;;;;;;;;4946725;28;20048;-67
2022/09/16 07:13:40;;;;;;;9.98;5.63;;;;;;;;;;4940860;28;20039;-67
2022/09/16 07:16:08;;;;;;;12.38;5.68;;;;;;;;;;4945352;28;20039;-67
2022/09/16 07:18:35;;;;;;;13.25;5.88;;;;;;;;;;4942129;28;20504;-68
2022/09/16 07:21:02;;;;;;;11.65;6.07;;;;;;;;;;4943122;28;20062;-67
2022/09/16 07:23:30;;;;;;;14.18;6.00;;;;;;;;;;4941975;28;20125;-67
2022/09/16 07:26:04;;;;;;;11.45;5.63;;;;;;;;;;4958184;28;20055;-69
2022/09/16 07:28:31;;;;;;;12.85;5.72;;;;;;;;;;4940201;28;20428;-67
2022/09/16 07:31:17;;;;;;;11.35;5.30;;;;;;;;;;4941730;28;20106;-66
2022/09/16 07:33:45;;;;;;;13.35;5.70;;;;;;;;;;4939813;28;20040;-68
2022/09/16 07:36:12;;;;;;;13.68;6.38;;;;;;;;;;4942536;28;20057;-67
2022/09/16 07:38:39;;;;;;;10.57;5.07;;;;;;;;;;4943114;28;20412;-67
2022/09/16 07:41:07;;;;;;;11.90;5.05;;;;;;;;;;4946223;28;20472;-67
2022/09/16 07:43:33;;;;;;;9.65;5.32;;;;;;;;;;4958771;28;20098;-68
2022/09/16 07:46:00;;;;;;;10.15;5.30;;;;;;;;;;4964879;28;20039;-67
2022/09/16 07:48:30;;;;;;;10.30;5.43;;;;;;;;;;4945843;28;20043;-68
2022/09/16 07:51:04;;;;;;;8.88;5.03;;;;;;;;;;4946755;28;20090;-68
2022/09/16 07:53:32;;;;;;;10.40;5.38;;;;;;;;;;4946731;28;20049;-67
2022/09/16 07:56:12;;;;;;;11.00;5.60;;;;;;;;;;4947762;28;20043;-67
2022/09/16 07:58:40;;;;;;;10.70;4.82;;;;;;;;;;4945774;28;20047;-67
2022/09/16 08:01:07;;;;;;;10.60;5.85;;;;;;;;;;4964658;28;20054;-66
2022/09/16 08:03:34;;;;;;;10.70;5.82;;;;;;;;;;4943064;28;20075;-67
2022/09/16 08:06:02;;;;;;;10.38;5.75;;;;;;;;;;4945387;28;20039;-67
2022/09/16 08:08:30;;;;;;;10.35;5.45;;;;;;;;;;4946176;28;21040;-67
2022/09/16 08:10:57;;;;;;;10.93;5.43;;;;;;;;;;4945977;28;20123;-66
2022/09/16 08:13:24;;;;;;;12.38;6.13;;;;;;;;;;4947724;28;20046;-67
2022/09/16 08:15:50;;;;;;;13.63;5.90;;;;;;;;;;4947970;28;20169;-66
2022/09/16 08:18:17;;;;;;;11.35;5.82;;;;;;;;;;4962214;28;20388;-66
2022/09/16 08:20:44;;;;;;;11.38;6.13;;;;;;;;;;4947351;28;20050;-67
2022/09/16 08:23:11;;;;;;;13.98;5.88;;;;;;;;;;4947563;28;20076;-67
2022/09/16 08:25:38;;;;;;;10.20;5.60;;;;;;;;;;4946985;28;20043;-67
2022/09/16 08:28:04;;;;;;;10.60;5.32;;;;;;;;;;4948725;28;20516;-68
2022/09/16 08:30:31;;;;;;;11.60;5.85;;;;;;;;;;4948156;28;20093;-66
2022/09/16 08:32:58;;;;;;;12.55;5.90;;;;;;;;;;4964573;28;20043;-66
2022/09/16 08:35:25;;;;;;;12.48;5.90;;;;;;;;;;4949747;28;20093;-67
2022/09/16 08:37:52;;;;;;;11.75;5.88;;;;;;;;;;4943356;28;20045;-67
2022/09/16 08:40:21;;;;;;;11.85;5.55;;;;;;;;;;4942500;28;20182;-66
2022/09/16 08:42:48;;;;;;;11.45;6.07;;;;;;;;;;4943853;28;20043;-66
2022/09/16 08:45:18;;;;;;;12.00;6.40;;;;;;;;;;4946315;28;20035;-67
2022/09/16 08:48:00;;;;;;;13.43;6.30;;;;;;;;;;4947222;28;20440;-67
2022/09/16 08:50:29;;;;;;;12.82;5.88;;;;;;;;;;4946381;28;20079;-67
2022/09/16 08:53:00;;;;;;;11.02;6.00;;;;;;;;;;4961450;28;20066;-69
2022/09/16 08:55:30;;;;;;;12.98;5.95;;;;;;;;;;4945007;28;20043;-68
2022/09/16 08:57:59;;;;;;;12.32;6.07;;;;;;;;;;4947094;28;20047;-67
2022/09/16 09:00:26;;;;;;;13.05;6.32;;;;;;;;;;4939591;28;20411;-67
2022/09/16 09:02:55;;;;;;;12.73;6.32;;;;;;;;;;4943028;28;20329;-66
2022/09/16 09:05:21;;;;;;;12.10;6.38;;;;;;;;;;4944924;28;20188;-67
2022/09/16 09:07:53;;;;;;;12.13;6.15;;;;;;;;;;4946824;28;20047;-67
2022/09/16 09:10:42;;;;;;;15.07;6.03;;;;;;;;;;4946619;28;20089;-67
2022/09/16 09:13:27;;;;;;;14.90;6.43;;;;;;;;;;4945561;28;20051;-68
2022/09/16 09:15:53;;;;;;;14.68;7.07;;;;;;;;;;4946094;28;20063;-68
2022/09/16 09:18:26;;;;;;;12.60;6.35;;;;;;;;;;4969505;28;20093;-71
2022/09/16 09:20:54;;;;;;;12.33;6.57;;;;;;;;;;4942753;28;20039;-66
2022/09/16 09:23:26;;;;;;;12.25;6.55;;;;;;;;;;4944065;28;20043;-67
2022/09/16 09:25:58;;;;;;;20.63;7.13;;;;;;;;;;4945493;28;20039;-66
2022/09/16 09:28:31;;;;;;;14.82;6.65;;;;;;;;;;4942314;28;20061;-70
2022/09/16 09:31:16;;;;;;;13.00;6.85;;;;;;;;;;4960146;28;20054;-69
2022/09/16 09:34:06;;;;;;;14.07;6.80;;;;;;;;;;4942008;28;20031;-68
2022/09/16 09:36:37;;;;;;;13.13;6.93;;;;;;;;;;4946576;28;20415;-69
2022/09/16 09:39:10;;;;;;;14.82;6.70;;;;;;;;;;4945193;28;20122;-68
2022/09/16 09:41:41;;;;;;;14.52;7.07;;;;;;;;;;4942707;28;20078;-68
2022/09/16 09:44:26;;;;;;;14.95;6.75;;;;;;;;;;4941530;28;20043;-66
2022/09/16 09:46:55;;;;;;;12.10;6.53;;;;;;;;;;4974241;28;20579;-66
2022/09/16 09:49:27;;;;;;;13.13;6.40;;;;;;;;;;4958199;28;20044;-67
2022/09/16 09:52:02;;;;;;;13.93;6.75;;;;;;;;;;4946701;28;20042;-67
2022/09/16 09:54:29;;;;;;;11.77;6.65;;;;;;;;;;4945294;28;20741;-67
2022/09/16 09:57:05;;;;;;;13.90;7.00;;;;;;;;;;4946029;28;20039;-66
2022/09/16 09:59:43;;;;;;;14.18;6.68;;;;;;;;;;4946636;28;20055;-66
2022/09/16 10:02:15;;;;;;;12.82;6.65;;;;;;;;;;4948171;28;20035;-68
2022/09/16 10:04:42;;;;;;;11.50;6.18;;;;;;;;;;4945031;28;20055;-67
2022/09/16 10:07:10;;;;;;;13.95;7.00;;;;;;;;;;4948534;28;20841;-67
2022/09/16 10:09:37;;;;;;;14.63;7.15;;;;;;;;;;4946673;28;20400;-67
2022/09/16 10:12:04;;;;;;;14.23;6.85;;;;;;;;;;4946177;28;20134;-67
2022/09/16 10:14:32;;;;;;;13.05;6.70;;;;;;;;;;4960603;28;20083;-67
2022/09/16 10:17:19;;;;;;;15.02;6.97;;;;;;;;;;4945091;28;20580;-67
2022/09/16 10:19:51;;;;;;;17.92;6.35;;;;;;;;;;4973313;28;20035;-68
2022/09/16 10:22:26;;;;;;;16.20;6.60;;;;;;;;;;4957463;28;20122;-68
2022/09/16 10:24:54;;;;;;;17.15;6.93;;;;;;;;;;4972215;28;20036;-67
2022/09/16 10:27:26;;;;;;;13.50;7.07;;;;;;;;;;4955911;28;20051;-67
2022/09/16 10:30:06;;;;;;;15.15;7.18;;;;;;;;;;4956979;28;20047;-67
2022/09/16 10:32:38;;;;;;;15.48;7.13;;;;;;;;;;4954720;28;20142;-66
2022/09/16 10:35:08;;;;;;;17.83;7.68;;;;;;;;;;4950551;28;20137;-67
2022/09/16 10:37:34;;;;;;;13.73;7.65;;;;;;;;;;4956391;28;20046;-68
2022/09/16 10:40:04;;;;;;;15.02;7.05;;;;;;;;;;4943877;28;20051;-67
2022/09/16 10:42:31;;;;;;;15.43;7.43;;;;;;;;;;4973965;28;20369;-67
2022/09/16 10:45:24;;;;;;;14.50;7.57;;;;;;;;;;4941455;28;20049;-67
2022/09/16 10:47:52;;;;;;;14.60;7.60;;;;;;;;;;4973058;28;20134;-68
2022/09/16 10:50:20;;;;;;;15.70;7.20;;;;;;;;;;4947382;28;20074;-66
2022/09/16 10:52:47;;;;;;;17.25;8.15;;;;;;;;;;4945100;28;20047;-70
2022/09/16 10:55:20;;;;;;;16.77;7.38;;;;;;;;;;4964303;28;20124;-67
2022/09/16 10:57:46;;;;;;;18.63;8.35;;;;;;;;;;4946508;28;20316;-67
2022/09/16 11:00:15;;;;;;;14.63;8.57;;;;;;;;;;4943108;28;20043;-68
2022/09/16 11:02:56;;;;;;;13.90;6.75;;;;;;;;;;4957037;28;20441;-67
2022/09/16 11:05:32;;;;;;;17.27;7.80;;;;;;;;;;4976408;28;20038;-68
2022/09/16 11:08:11;;;;;;;12.75;7.10;;;;;;;;;;4957266;28;20051;-68
2022/09/16 11:10:40;;;;;;;13.35;6.80;;;;;;;;;;4956138;28;20047;-68
2022/09/16 11:13:19;;;;;;;14.52;7.55;;;;;;;;;;4960052;28;20094;-68
2022/09/16 11:15:45;;;;;;;10.93;6.57;;;;;;;;;;4945080;28;20126;-66
2022/09/16 11:18:24;;;;;;;13.18;7.40;;;;;;;;;;4943919;28;20054;-66
2022/09/16 11:20:59;;;;;;;14.77;7.60;;;;;;;;;;4945476;28;20043;-65
2022/09/16 11:23:38;;;;;;;15.98;7.88;;;;;;;;;;4945479;28;20040;-66
2022/09/16 11:26:16;;;;;;;11.48;7.05;;;;;;;;;;4943262;28;20043;-67
2022/09/16 11:28:46;;;;;;;15.20;7.63;;;;;;;;;;4939123;28;20071;-66
2022/09/16 11:31:15;;;;;;;14.55;6.88;;;;;;;;;;4944527;28;20046;-67
2022/09/16 11:33:49;;;;;;;13.63;7.18;;;;;;;;;;4941743;28;20035;-69
2022/09/16 11:36:31;;;;;;;17.38;7.93;;;;;;;;;;4943548;28;20807;-68
2022/09/16 11:38:58;;;;;;;13.77;6.75;;;;;;;;;;4942875;28;20035;-68
2022/09/16 11:41:29;;;;;;;18.95;7.43;;;;;;;;;;4943328;28;20040;-68
2022/09/16 11:44:06;;;;;;;14.90;7.60;;;;;;;;;;4956455;28;20071;-67
2022/09/16 11:46:48;;;;;;;13.80;7.43;;;;;;;;;;4957112;28;20055;-67
2022/09/16 11:49:18;;;;;;;13.80;7.30;;;;;;;;;;4943681;28;20110;-67
2022/09/16 11:52:01;;;;;;;17.40;7.85;;;;;;;;;;4944756;28;20047;-66
2022/09/16 11:54:34;;;;;;;14.67;7.27;;;;;;;;;;4943219;28;20040;-67
2022/09/16 11:57:04;;;;;;;13.70;7.18;;;;;;;;;;4956358;28;20046;-67
2022/09/16 11:59:30;;;;;;;17.83;7.82;;;;;;;;;;4941655;28;20035;-67
2022/09/16 12:02:15;;;;;;;14.75;7.45;;;;;;;;;;4941486;28;20038;-68
2022/09/16 12:04:45;;;;;;;15.57;7.75;;;;;;;;;;4941993;28;20063;-68
2022/09/16 12:07:11;;;;;;;19.55;6.97;;;;;;;;;;4963660;28;20093;-68
2022/09/16 12:09:38;;;;;;;13.95;7.85;;;;;;;;;;4946721;28;20047;-67
2022/09/16 12:12:13;;;;;;;14.73;7.25;;;;;;;;;;4945207;28;20063;-67
2022/09/16 12:14:45;;;;;;;13.20;7.32;;;;;;;;;;4936057;28;20059;-67
2022/09/16 12:17:20;;;;;;;14.40;7.38;;;;;;;;;;4955289;28;20047;-67
2022/09/16 12:19:55;;;;;;;13.45;7.03;;;;;;;;;;4939198;28;20046;-69
2022/09/16 12:22:22;;;;;;;13.65;7.28;;;;;;;;;;4959157;28;20063;-67
2022/09/16 12:25:02;;;;;;;15.60;7.07;;;;;;;;;;4940449;28;20035;-66
2022/09/16 12:27:41;;;;;;;16.17;7.65;;;;;;;;;;4939966;28;20081;-66
2022/09/16 12:30:18;;;;;;;13.90;7.10;;;;;;;;;;4939448;28;20508;-66
2022/09/16 12:33:04;;;;;;;17.15;7.57;;;;;;;;;;4946395;28;20051;-67
2022/09/16 12:35:51;;;;;;;13.60;7.20;;;;;;;;;;4945326;28;20042;-66
2022/09/16 12:38:19;;;;;;;14.82;7.55;;;;;;;;;;4944314;28;20039;-66
2022/09/16 12:40:58;;;;;;;16.75;8.30;;;;;;;;;;4943652;28;20118;-65
2022/09/16 12:43:25;;;;;;;14.68;7.63;;;;;;;;;;4959665;28;20038;-66
2022/09/16 12:45:58;;;;;;;13.00;7.07;;;;;;;;;;4946280;28;20047;-65
2022/09/16 12:48:31;;;;;;;14.75;7.60;;;;;;;;;;4942951;28;20078;-65
2022/09/16 12:51:16;;;;;;;13.90;7.93;;;;;;;;;;4945968;28;20075;-66
2022/09/16 12:54:03;;;;;;;18.88;7.90;;;;;;;;;;4944873;28;20056;-65
2022/09/16 12:56:49;;;;;;;16.23;7.90;;;;;;;;;;4942712;28;20609;-65
2022/09/16 12:59:28;;;;;;;13.60;7.30;;;;;;;;;;4959408;28;20052;-65
2022/09/16 13:02:10;;;;;;;14.45;7.75;;;;;;;;;;4946905;28;20048;-65
2022/09/16 13:04:43;;;;;;;20.52;8.23;;;;;;;;;;4946559;28;20075;-64
2022/09/16 13:07:19;;;;;;;17.75;8.18;;;;;;;;;;4978540;28;20066;-66
2022/09/16 13:09:46;;;;;;;17.23;8.07;;;;;;;;;;4948641;28;20175;-64
2022/09/16 13:12:21;;;;;;;18.42;8.05;;;;;;;;;;4959683;28;20043;-65
2022/09/16 13:14:50;;;;;;;20.52;7.90;;;;;;;;;;4943748;28;20058;-66
2022/09/16 13:17:26;;;;;;;18.83;8.73;;;;;;;;;;4945839;28;20043;-65
2022/09/16 13:19:54;;;;;;;21.23;8.10;;;;;;;;;;4972922;28;20044;-64
2022/09/16 13:22:22;;;;;;;24.95;8.90;;;;;;;;;;4941494;28;20083;-65
2022/09/16 13:25:00;;;;;;;29.55;9.13;;;;;;;;;;4945863;28;20040;-65
2022/09/16 13:27:30;;;;;;;28.05;8.90;;;;;;;;;;4944908;28;20051;-65
2022/09/16 13:30:12;;;;;;;17.90;8.00;;;;;;;;;;4957222;28;20090;-65
2022/09/16 13:32:56;;;;;;;19.83;8.93;;;;;;;;;;4958715;28;20078;-65
2022/09/16 13:35:32;;;;;;;23.42;8.60;;;;;;;;;;4946779;28;20057;-65
2022/09/16 13:37:59;;;;;;;23.08;8.48;;;;;;;;;;4945646;28;20094;-64
2022/09/16 13:40:30;;;;;;;26.60;8.85;;;;;;;;;;4941570;28;20110;-64
2022/09/16 13:43:04;;;;;;;18.85;8.48;;;;;;;;;;4948340;28;20046;-66
2022/09/16 13:45:35;;;;;;;23.77;8.63;;;;;;;;;;4944060;28;20897;-66
2022/09/16 13:48:06;;;;;;;15.77;8.20;;;;;;;;;;4945730;28;20793;-67
2022/09/16 13:50:35;;;;;;;19.60;8.65;;;;;;;;;;4948044;28;20034;-67
2022/09/16 13:53:30;;;;;;;24.00;8.68;;;;;;;;;;4950233;28;20042;-66
2022/09/16 13:56:05;;;;;;;21.55;8.40;;;;;;;;;;4934774;28;20055;-67
2022/09/16 13:58:39;;;;;;;17.98;8.65;;;;;;;;;;4946056;28;20228;-67
2022/09/16 14:01:21;;;;;;;15.90;8.07;;;;;;;;;;4940754;28;20161;-67
2022/09/16 14:03:53;;;;;;;24.38;8.52;;;;;;;;;;4938794;28;20138;-69
2022/09/16 14:06:26;;;;;;;22.58;8.65;;;;;;;;;;4970602;28;20545;-67
2022/09/16 14:08:56;;;;;;;19.13;9.15;;;;;;;;;;4941304;28;20063;-66
2022/09/16 14:11:32;;;;;;;18.75;8.73;;;;;;;;;;4943511;28;20035;-67
2022/09/16 14:14:04;;;;;;;20.67;9.38;;;;;;;;;;4946673;28;20043;-67
2022/09/16 14:16:32;;;;;;;23.10;10.10;;;;;;;;;;4945078;28;20039;-68
2022/09/16 14:19:16;;;;;;;18.45;8.68;;;;;;;;;;4944367;28;20035;-67
2022/09/16 14:21:43;;;;;;;19.23;9.73;;;;;;;;;;4959184;28;20039;-67
2022/09/16 14:24:17;;;;;;;24.55;10.02;;;;;;;;;;4945339;28;20043;-67
2022/09/16 14:26:51;;;;;;;28.65;9.27;;;;;;;;;;4944533;28;20055;-67
2022/09/16 14:29:17;;;;;;;23.10;9.60;;;;;;;;;;4945526;28;20047;-68
2022/09/16 14:31:44;;;;;;;26.23;9.52;;;;;;;;;;4944122;28;20490;-67
2022/09/16 14:34:14;;;;;;;25.63;9.20;;;;;;;;;;4946102;28;20105;-67
2022/09/16 14:36:42;;;;;;;21.27;8.90;;;;;;;;;;4945181;28;25371;-67
2022/09/16 14:39:11;;;;;;;25.88;10.10;;;;;;;;;;4946675;28;20050;-66
2022/09/16 14:41:40;;;;;;;21.25;9.75;;;;;;;;;;4945667;28;20102;-68
2022/09/16 14:44:23;;;;;;;18.40;9.23;;;;;;;;;;4942252;28;20524;-67
2022/09/16 14:46:50;;;;;;;19.38;9.57;;;;;;;;;;4941416;28;20237;-67
2022/09/16 14:49:17;;;;;;;21.17;8.82;;;;;;;;;;4944797;28;20031;-66
2022/09/16 14:51:45;;;;;;;29.67;10.23;;;;;;;;;;4945135;28;20065;-67